Time;durP1;ratioP1;P1;durP2;ratioP2;P2;SDS_P1;SDS_P2;PMS_P1;PMS_P2;Temp;Humidity;BMP_temperature;BMP_pressure;BME280_temperature;BME280_humidity;BME280_pressure;Samples;Min_cycle;Max_cycle;Signal;HPM_P1;HPM_P2
2023/09/15 03:30:37;;;;;;;;;;;;;;;21.37;68.30;96960.31;4226266;27;10408;-61
2023/09/15 03:32:43;;;;;;;;;;;;;;;21.67;67.60;96969.66;4230136;28;5822;-63
2023/09/15 03:34:46;;;;;;;;;;;;;;;21.89;67.31;96967.66;4230169;28;5783;-62
2023/09/15 03:36:49;;;;;;;;;;;;;;;22.06;66.97;96973.69;4231110;28;5871;-64
2023/09/15 03:38:52;;;;;;;;;;;;;;;22.20;66.20;96965.13;4230842;28;5073;-64
2023/09/15 03:40:55;;;;;;;;;;;;;;;22.32;65.72;96965.72;4229741;28;5709;-64
2023/09/15 03:42:57;;;;;;;;;;;;;;;22.43;65.85;96972.78;4230595;28;5688;-65
2023/09/15 03:44:59;;;;;;;;;;;;;;;22.51;65.05;96963.34;4219131;28;5856;-65
2023/09/15 03:47:04;;;;;;;;;;;;;;;22.58;64.76;96970.13;4224307;28;5759;-65
2023/09/15 03:49:07;;;;;;;;;;;;;;;22.63;64.86;96966.63;4227593;28;5782;-64
2023/09/15 03:51:09;;;;;;;;;;;;;;;22.69;64.27;96959.38;4227883;28;5882;-65
2023/09/15 03:53:13;;;;;;;;;;;;;;;22.73;64.55;96961.25;4231121;28;5687;-65
2023/09/15 03:55:17;;;;;;;;;;;;;;;22.76;64.03;96965.31;4239921;27;5776;-65
2023/09/15 03:57:20;;;;;;;;;;;;;;;22.79;63.97;96962.09;4231418;28;5759;-66
2023/09/15 03:59:22;;;;;;;;;;;;;;;22.83;64.00;96965.88;4230849;28;5767;-65
2023/09/15 04:01:25;;;;;;;;;;;;;;;22.85;63.53;96958.34;4231338;28;5695;-66
2023/09/15 04:03:30;;;;;;;;;;;;;;;22.86;63.45;96959.97;4231772;28;5754;-66
2023/09/15 04:05:33;;;;;;;;;;;;;;;22.87;63.54;96969.66;4231047;28;5684;-65
2023/09/15 04:07:37;;;;;;;;;;;;;;;22.88;63.52;96966.72;4222955;28;5699;-65
2023/09/15 04:09:41;;;;;;;;;;;;;;;22.87;63.07;96961.56;4231249;28;5668;-65
2023/09/15 04:11:44;;;;;;;;;;;;;;;22.90;63.26;96961.88;4231201;28;5738;-65
2023/09/15 04:13:47;;;;;;;;;;;;;;;22.90;63.22;96963.75;4230867;28;5676;-64
2023/09/15 04:15:50;;;;;;;;;;;;;;;22.90;62.73;96958.38;4231103;28;5842;-64
2023/09/15 04:17:55;;;;;;;;;;;;;;;22.90;62.66;96959.19;4231081;28;8700;-65
2023/09/15 04:20:00;;;;;;;;;;;;;;;22.91;62.58;96954.59;4230469;28;6497;-66
2023/09/15 04:22:02;;;;;;;;;;;;;;;22.91;63.05;96958.09;4231223;28;5675;-65
2023/09/15 04:24:07;;;;;;;;;;;;;;;22.92;62.73;96959.72;4231132;28;5746;-65
2023/09/15 04:26:10;;;;;;;;;;;;;;;22.94;62.29;96964.84;4231017;28;5688;-65
2023/09/15 04:28:13;;;;;;;;;;;;;;;22.94;62.66;96970.22;4231022;28;5671;-65
2023/09/15 04:30:16;;;;;;;;;;;;;;;22.94;62.15;96967.53;4226829;28;5692;-65
2023/09/15 04:32:19;;;;;;;;;;;;;;;22.93;61.75;96966.72;4209628;28;5777;-65
2023/09/15 04:34:22;;;;;;;;;;;;;;;22.91;62.24;96966.19;4218464;28;5890;-65
2023/09/15 04:36:27;;;;;;;;;;;;;;;22.91;61.64;96965.38;4219315;28;5696;-65
2023/09/15 04:38:30;;;;;;;;;;;;;;;22.90;62.15;96971.84;4214864;28;5965;-65
2023/09/15 04:40:33;;;;;;;;;;;;;;;22.87;61.61;96972.34;4218897;28;5668;-65
2023/09/15 04:42:40;;;;;;;;;;;;;;;22.84;62.00;96972.91;4219391;28;5668;-65
2023/09/15 04:44:43;;;;;;;;;;;;;;;22.85;61.60;96969.94;4215705;28;5668;-65
2023/09/15 04:46:45;;;;;;;;;;;;;;;22.85;62.04;96971.81;4216295;28;5482;-65
2023/09/15 04:48:48;;;;;;;;;;;;;;;22.85;61.93;96963.72;4219190;28;6369;-65
2023/09/15 04:50:51;;;;;;;;;;;;;;;22.83;61.69;96968.56;4214786;28;5668;-65
2023/09/15 04:52:56;;;;;;;;;;;;;;;22.83;61.83;96973.94;4219202;28;5803;-65
2023/09/15 04:54:59;;;;;;;;;;;;;;;22.82;61.50;96965.06;4219072;28;5784;-65
2023/09/15 04:57:01;;;;;;;;;;;;;;;22.84;61.73;96968.31;4219072;28;5720;-65
2023/09/15 04:59:15;;;;;;;;;;;;;;;22.85;61.92;96964.53;4218702;28;7293;-65
2023/09/15 05:01:19;;;;;;;;;;;;;;;22.86;61.54;96974.25;4219213;28;5727;-65
2023/09/15 05:03:23;;;;;;;;;;;;;;;22.88;61.62;96982.91;4218853;28;5854;-65
2023/09/15 05:05:26;;;;;;;;;;;;;;;22.90;61.32;96986.13;4218842;28;5696;-66
2023/09/15 05:07:29;;;;;;;;;;;;;;;22.90;61.43;96986.13;4214062;28;5856;-65
2023/09/15 05:09:33;;;;;;;;;;;;;;;22.91;61.46;96984.25;4221883;28;5763;-65
2023/09/15 05:11:36;;;;;;;;;;;;;;;22.91;61.37;96985.06;4209530;28;6340;-65
2023/09/15 05:13:39;;;;;;;;;;;;;;;22.92;61.39;96991.25;4218044;28;5780;-64
2023/09/15 05:15:41;;;;;;;;;;;;;;;22.96;61.52;96995.03;4218815;28;5212;-64
2023/09/15 05:17:45;;;;;;;;;;;;;;;22.95;61.44;96991.53;4218777;28;5675;-65
2023/09/15 05:19:49;;;;;;;;;;;;;;;22.97;60.87;96993.94;4218693;28;5802;-64
2023/09/15 05:21:52;;;;;;;;;;;;;;;22.98;60.85;96992.88;4218895;28;7320;-64
2023/09/15 05:23:55;;;;;;;;;;;;;;;22.98;61.16;96990.16;4218642;28;5663;-64
2023/09/15 05:25:59;;;;;;;;;;;;;;;22.96;61.12;97000.41;4218608;28;5818;-65
2023/09/15 05:28:02;;;;;;;;;;;;;;;22.97;60.94;97004.72;4218309;28;5763;-65
2023/09/15 05:30:06;;;;;;;;;;;;;;;22.95;61.12;96994.22;4213221;28;5676;-66
2023/09/15 05:32:09;;;;;;;;;;;;;;;22.97;60.70;97004.72;4207492;28;5663;-66
2023/09/15 05:34:12;;;;;;;;;;;;;;;22.97;60.83;97003.91;4218192;28;5672;-66
2023/09/15 05:36:15;;;;;;;;;;;;;;;22.98;61.01;97010.94;4218553;28;5668;-68
2023/09/15 05:38:18;;;;;;;;;;;;;;;22.98;60.64;97003.66;4218584;28;5683;-67
2023/09/15 05:40:21;;;;;;;;;;;;;;;22.99;60.64;97001.75;4218642;28;5659;-67
2023/09/15 05:42:25;;;;;;;;;;;;;;;23.00;60.46;97009.59;4217556;28;5660;-67
2023/09/15 05:44:28;;;;;;;;;;;;;;;23.00;60.81;97004.22;4218681;28;6362;-67
2023/09/15 05:46:31;;;;;;;;;;;;;;;23.01;60.43;97005.03;4218398;28;5685;-66
2023/09/15 05:48:34;;;;;;;;;;;;;;;22.98;60.48;97006.34;4218435;28;5668;-66
2023/09/15 05:50:36;;;;;;;;;;;;;;;22.96;60.58;97003.13;4218539;28;6382;-66
2023/09/15 05:52:39;;;;;;;;;;;;;;;22.95;60.82;97002.31;4217850;28;6377;-66
2023/09/15 05:54:42;;;;;;;;;;;;;;;22.97;60.95;96991.25;4218486;28;5766;-66
2023/09/15 05:56:46;;;;;;;;;;;;;;;22.99;60.52;97002.59;4218525;28;5751;-66
2023/09/15 05:58:50;;;;;;;;;;;;;;;23.01;60.43;96999.63;4218295;28;5796;-66
2023/09/15 06:00:55;;;;;;;;;;;;;;;23.03;60.44;97000.16;4218230;28;5679;-66
2023/09/15 06:02:59;;;;;;;;;;;;;;;23.04;60.40;97002.59;4218186;28;5664;-66
2023/09/15 06:05:02;;;;;;;;;;;;;;;23.04;60.70;96999.91;4218240;28;5685;-66
2023/09/15 06:07:05;;;;;;;;;;;;;;;23.06;60.57;96996.94;4218394;28;5668;-66
2023/09/15 06:09:09;;;;;;;;;;;;;;;23.07;60.56;97002.06;4218301;28;5660;-66
2023/09/15 06:11:11;;;;;;;;;;;;;;;23.07;60.29;97007.44;4218110;28;6576;-67
2023/09/15 06:13:14;;;;;;;;;;;;;;;23.08;60.35;96995.56;4218255;28;5679;-66
2023/09/15 06:15:21;;;;;;;;;;;;;;;23.09;60.39;96994.50;4218027;28;5673;-67
2023/09/15 06:17:24;;;;;;;;;;;;;;;23.10;60.30;96990.72;4218154;28;5664;-67
2023/09/15 06:19:27;;;;;;;;;;;;;;;23.11;60.40;96992.38;4218062;28;5692;-67
2023/09/15 06:21:30;;;;;;;;;;;;;;;23.10;60.20;96996.13;4217770;28;5664;-67
2023/09/15 06:23:33;;;;;;;;;;;;;;;23.13;60.62;96986.69;4218134;28;5735;-67
2023/09/15 06:25:36;;;;;;;;;;;;;;;23.13;60.57;96987.50;4218104;28;5676;-67
2023/09/15 06:27:39;;;;;;;;;;;;;;;23.13;60.17;96987.50;4217758;28;6478;-67
2023/09/15 06:29:43;;;;;;;;;;;;;;;23.14;60.61;96991.00;4217454;28;5863;-67
2023/09/15 06:31:48;;;;;;;;;;;;;;;23.14;60.21;96989.13;4218082;28;5807;-67
2023/09/15 06:33:51;;;;;;;;;;;;;;;23.16;60.01;96996.94;4218012;28;5664;-67
2023/09/15 06:35:54;;;;;;;;;;;;;;;23.17;60.12;96995.88;4217761;28;5810;-66
2023/09/15 06:37:57;;;;;;;;;;;;;;;23.19;59.80;96993.69;4217580;28;5895;-66
2023/09/15 06:40:00;;;;;;;;;;;;;;;23.19;60.40;96991.81;4217800;28;7691;-67
2023/09/15 06:42:02;;;;;;;;;;;;;;;23.20;60.27;96990.72;4217792;28;5840;-67
2023/09/15 06:44:06;;;;;;;;;;;;;;;23.22;60.01;96990.50;4217680;28;5883;-66
2023/09/15 06:46:10;;;;;;;;;;;;;;;23.22;59.89;96991.31;4217533;28;5664;-66
2023/09/15 06:48:15;;;;;;;;;;;;;;;23.22;59.82;96990.50;4217639;28;5811;-66
2023/09/15 06:50:18;;;;;;;;;;;;;;;23.22;60.07;96991.31;4217005;28;5826;-66
2023/09/15 06:52:21;;;;;;;;;;;;;;;23.24;59.91;96994.53;4217742;28;5762;-67
2023/09/15 06:54:24;;;;;;;;;;;;;;;23.26;59.85;96998.84;4217429;28;5680;-67
2023/09/15 06:56:27;;;;;;;;;;;;;;;23.26;59.67;96999.66;4217740;28;5781;-67
2023/09/15 06:58:30;;;;;;;;;;;;;;;23.28;60.11;97002.06;4217610;28;5672;-66
2023/09/15 07:00:33;;;;;;;;;;;;;;;23.27;59.72;97008.56;4217670;28;5774;-65
2023/09/15 07:02:36;;;;;;;;;;;;;;;23.25;59.87;97011.53;4217468;28;5754;-66
2023/09/15 07:04:40;;;;;;;;;;;;;;;23.26;59.68;97009.63;4217575;28;5672;-65
2023/09/15 07:06:43;;;;;;;;;;;;;;;23.28;59.66;97012.88;4217365;28;5683;-66
2023/09/15 07:08:45;;;;;;;;;;;;;;;23.26;59.61;97007.75;4211274;28;5803;-67
2023/09/15 07:10:51;;;;;;;;;;;;;;;23.24;59.96;97001.81;4211161;28;5672;-67
2023/09/15 07:12:54;;;;;;;;;;;;;;;23.24;59.77;97007.22;4212280;28;6584;-65
2023/09/15 07:15:00;;;;;;;;;;;;;;;23.23;60.06;97006.41;4216404;28;5889;-66
2023/09/15 07:17:05;;;;;;;;;;;;;;;23.26;59.91;97006.94;4220903;28;5684;-65
2023/09/15 07:19:08;;;;;;;;;;;;;;;23.24;59.78;97001.81;4217789;28;5922;-65
2023/09/15 07:21:14;;;;;;;;;;;;;;;23.22;59.85;97010.19;4213186;28;5789;-66
2023/09/15 07:23:17;;;;;;;;;;;;;;;23.20;59.70;97004.22;4223286;28;5656;-66
2023/09/15 07:25:20;;;;;;;;;;;;;;;23.16;59.79;97000.44;4220042;28;5794;-66
2023/09/15 07:27:24;;;;;;;;;;;;;;;23.11;59.88;96997.75;4215891;28;5796;-66
2023/09/15 07:29:28;;;;;;;;;;;;;;;23.09;60.07;96999.09;4220779;28;5654;-66
2023/09/15 07:31:35;;;;;;;;;;;;;;;23.06;59.99;96995.03;4211855;28;5720;-66
2023/09/15 07:33:38;;;;;;;;;;;;;;;23.03;60.17;96995.59;4209630;28;5680;-66
2023/09/15 07:35:41;;;;;;;;;;;;;;;23.02;60.51;96991.28;4212077;28;5652;-67
2023/09/15 07:37:45;;;;;;;;;;;;;;;23.02;60.26;96996.66;4229820;28;5639;-67
2023/09/15 07:39:48;;;;;;;;;;;;;;;23.04;60.36;96985.59;4216536;28;5709;-66
2023/09/15 07:41:50;;;;;;;;;;;;;;;23.05;60.05;96979.94;4215723;28;5642;-67
2023/09/15 07:43:57;;;;;;;;;;;;;;;23.06;59.91;96978.88;4219841;28;5687;-66
2023/09/15 07:45:59;;;;;;;;;;;;;;;23.12;60.25;96985.91;4216084;28;5175;-66
2023/09/15 07:48:02;;;;;;;;;;;;;;;23.15;60.26;96988.03;4215633;28;6556;-66
2023/09/15 07:50:06;;;;;;;;;;;;;;;23.17;59.71;96983.19;4226224;28;5760;-66
2023/09/15 07:52:08;;;;;;;;;;;;;;;23.20;59.76;96987.22;4214548;28;6636;-65
2023/09/15 07:54:13;;;;;;;;;;;;;;;23.20;59.73;96990.72;4215854;28;5701;-66
2023/09/15 07:56:15;;;;;;;;;;;;;;;23.22;59.80;96988.59;4222075;28;5744;-66
2023/09/15 07:58:18;;;;;;;;;;;;;;;23.23;59.61;96981.31;4213313;28;5672;-66
2023/09/15 08:00:21;;;;;;;;;;;;;;;23.26;59.97;96986.16;4224090;28;5765;-67
2023/09/15 08:02:26;;;;;;;;;;;;;;;23.27;59.76;96989.66;4212924;28;5681;-67
2023/09/15 08:04:29;;;;;;;;;;;;;;;23.31;59.67;96985.34;4210447;28;5907;-67
2023/09/15 08:06:31;;;;;;;;;;;;;;;23.30;59.58;96992.63;4215676;28;5689;-66
2023/09/15 08:08:35;;;;;;;;;;;;;;;23.28;59.65;96991.28;4209001;28;5681;-66
2023/09/15 08:10:39;;;;;;;;;;;;;;;23.29;59.86;96988.31;4213692;28;5697;-65
2023/09/15 08:12:42;;;;;;;;;;;;;;;23.26;60.05;96986.16;4219811;28;5677;-66
2023/09/15 08:14:45;;;;;;;;;;;;;;;23.28;59.74;96985.91;4217475;28;5676;-66
2023/09/15 08:16:48;;;;;;;;;;;;;;;23.30;60.16;96981.84;4230198;28;5647;-66
2023/09/15 08:18:51;;;;;;;;;;;;;;;23.30;59.96;96984.53;4219878;28;5108;-66
2023/09/15 08:20:53;;;;;;;;;;;;;;;;;;4220787;28;5772;-66
2023/09/15 08:22:57;;;;;;;;;;;;;;;23.29;59.79;96982.13;4214454;28;5661;-66
2023/09/15 08:25:03;;;;;;;;;;;;;;;23.34;60.12;96987.53;4208913;28;5894;-67
2023/09/15 08:27:08;;;;;;;;;;;;;;;23.37;59.93;96992.38;4209266;28;5752;-70
2023/09/15 08:29:12;;;;;;;;;;;;;;;23.38;59.93;96999.38;4209731;28;5668;-74
2023/09/15 08:31:15;;;;;;;;;;;;;;;23.41;59.83;96993.44;4216348;28;5680;-73
2023/09/15 08:33:18;;;;;;;;;;;;;;;23.43;59.44;96992.09;4207552;28;5788;-72
2023/09/15 08:35:22;;;;;;;;;;;;;;;23.44;59.65;96988.34;4212618;28;6371;-80
2023/09/15 08:37:25;;;;;;;;;;;;;;;23.46;59.47;96991.56;4214273;28;6638;-77
2023/09/15 08:39:28;;;;;;;;;;;;;;;23.47;59.69;96989.69;4214019;28;5672;-72
2023/09/15 08:41:32;;;;;;;;;;;;;;;23.46;59.74;96986.16;4207928;28;5820;-74
2023/09/15 08:43:37;;;;;;;;;;;;;;;23.48;59.41;96988.59;4213665;28;5720;-81
2023/09/15 08:45:45;;;;;;;;;;;;;;;23.50;59.24;96986.44;4217615;28;5669;-81
2023/09/15 08:47:55;;;;;;;;;;;;;;;23.52;59.32;96986.97;4212498;28;5692;-75
2023/09/15 08:50:01;;;;;;;;;;;;;;;23.53;59.43;96988.56;4213856;28;6471;-81
2023/09/15 08:52:05;;;;;;;;;;;;;;;23.54;59.56;96987.50;4208410;28;5843;-73
2023/09/15 08:54:07;;;;;;;;;;;;;;;23.55;59.12;96991.81;4212569;28;5767;-83
2023/09/15 08:56:11;;;;;;;;;;;;;;;23.56;59.10;96984.53;4214877;28;5743;-84
2023/09/15 08:58:15;;;;;;;;;;;;;;;23.57;59.32;96981.56;4209574;28;6345;-77
2023/09/15 09:00:20;;;;;;;;;;;;;;;23.58;59.25;96983.22;4201177;28;5780;-81
2023/09/15 09:02:26;;;;;;;;;;;;;;;23.61;58.98;96990.78;4211227;28;6359;-80
2023/09/15 09:04:29;;;;;;;;;;;;;;;23.63;58.94;96991.31;4214665;28;5888;-75
2023/09/15 09:06:34;;;;;;;;;;;;;;;23.64;59.01;96995.63;4201555;28;5862;-78
2023/09/15 09:08:41;;;;;;;;;;;;;;;23.67;59.07;96992.41;4208290;28;5745;-79
2023/09/15 09:10:46;;;;;;;;;;;;;;;23.69;58.77;96998.31;4214794;28;5891;-73
2023/09/15 09:12:48;;;;;;;;;;;;;;;23.70;58.68;96991.84;4213655;28;6516;-83
2023/09/15 09:14:55;;;;;;;;;;;;;;;23.71;58.92;96990.75;4214475;28;5756;-72
2023/09/15 09:17:01;;;;;;;;;;;;;;;23.73;58.71;96998.59;4212256;28;5821;-74
2023/09/15 09:19:06;;;;;;;;;;;;;;;23.73;58.27;96999.38;4216620;28;5684;-78
2023/09/15 09:21:09;;;;;;;;;;;;;;;23.74;58.48;97001.00;4216672;28;5767;-84
2023/09/15 09:23:13;;;;;;;;;;;;;;;23.75;58.48;96999.91;4214312;28;5955;-82
2023/09/15 09:25:25;;;;;;;;;;;;;;;23.77;58.15;96997.75;4213836;28;8545;-68
2023/09/15 09:27:32;;;;;;;;;;;;;;;23.76;58.24;97004.25;4215728;28;5803;-68
2023/09/15 09:29:35;;;;;;;;;;;;;;;23.77;58.30;96996.94;4205452;28;5930;-69
2023/09/15 09:31:40;;;;;;;;;;;;;;;23.78;58.01;96998.56;4212727;28;5727;-70
2023/09/15 09:33:44;;;;;;;;;;;;;;;23.78;57.61;96998.56;4208214;28;5767;-69
2023/09/15 09:35:47;;;;;;;;;;;;;;;23.79;57.94;96994.81;4211877;28;5808;-71
2023/09/15 09:37:51;;;;;;;;;;;;;;;23.79;58.06;96984.00;4218162;28;5696;-74
2023/09/15 09:39:53;;;;;;;;;;;;;;;23.79;57.63;96989.41;4218284;28;5668;-78
2023/09/15 09:41:57;;;;;;;;;;;;;;;23.79;57.89;96998.31;4222207;28;5656;-76
2023/09/15 09:44:04;;;;;;;;;;;;;;;23.78;57.52;96988.59;4218566;28;5668;-76
2023/09/15 09:46:08;;;;;;;;;;;;;;;23.78;57.86;96982.38;4222920;28;5676;-74
2023/09/15 09:48:12;;;;;;;;;;;;;;;23.79;57.75;96984.81;4216302;28;5694;-76
2023/09/15 09:50:17;;;;;;;;;;;;;;;23.79;57.27;96987.53;4216616;28;5656;-74
2023/09/15 09:52:21;;;;;;;;;;;;;;;23.82;57.17;96983.47;4220135;28;5794;-76
2023/09/15 09:54:25;;;;;;;;;;;;;;;23.86;57.64;96983.72;4218716;28;5747;-76
2023/09/15 09:56:32;;;;;;;;;;;;;;;23.86;57.45;96987.22;4203064;28;5757;-75
2023/09/15 09:58:37;;;;;;;;;;;;;;;23.88;57.38;96982.34;4210655;28;5680;-76
2023/09/15 10:00:41;;;;;;;;;;;;;;;23.91;57.03;96981.81;4209628;28;6520;-75
2023/09/15 10:02:44;;;;;;;;;;;;;;;23.91;57.01;96981.00;4203346;28;5697;-76
2023/09/15 10:04:47;;;;;;;;;;;;;;;23.93;57.32;96978.84;4218777;28;5875;-76
2023/09/15 10:06:52;;;;;;;;;;;;;;;23.94;57.01;96981.28;4210535;28;6054;-76
2023/09/15 10:08:58;;;;;;;;;;;;;;;23.93;57.05;96974.25;4219124;28;5669;-76
2023/09/15 10:11:01;;;;;;;;;;;;;;;23.94;57.16;96972.34;4218837;28;5826;-76
2023/09/15 10:13:04;;;;;;;;;;;;;;;23.96;57.16;96967.50;4210502;28;5683;-76
2023/09/15 10:15:11;;;;;;;;;;;;;;;23.98;57.02;96971.53;4218405;28;5093;-76
2023/09/15 10:17:14;;;;;;;;;;;;;;;23.99;57.00;96962.34;4218508;28;5680;-76
2023/09/15 10:19:18;;;;;;;;;;;;;;;23.99;56.70;96965.03;4215277;28;5690;-76
2023/09/15 10:21:21;;;;;;;;;;;;;;;24.01;56.35;96964.75;4211098;28;5775;-75
2023/09/15 10:23:25;;;;;;;;;;;;;;;24.00;56.28;96960.44;4217088;28;5720;-75
2023/09/15 10:25:39;;;;;;;;;;;;;;;24.00;56.24;96960.44;4218448;28;6349;-75
2023/09/15 10:27:42;;;;;;;;;;;;;;;24.02;56.65;96961.81;4210855;28;5779;-75
2023/09/15 10:29:46;;;;;;;;;;;;;;;24.05;56.60;96963.16;4211578;28;5677;-75
2023/09/15 10:31:48;;;;;;;;;;;;;;;24.05;56.34;96960.44;4217028;28;6491;-75
2023/09/15 10:33:51;;;;;;;;;;;;;;;24.05;56.16;96960.44;4214261;28;5902;-75
2023/09/15 10:36:02;;;;;;;;;;;;;;;24.04;56.65;96948.84;4209466;28;5680;-75
2023/09/15 10:38:05;;;;;;;;;;;;;;;24.07;56.22;96947.47;4209334;28;5754;-75
2023/09/15 10:40:12;;;;;;;;;;;;;;;24.06;56.52;96945.84;4209383;28;5762;-76
2023/09/15 10:42:15;;;;;;;;;;;;;;;24.08;56.10;96947.19;4209864;28;5739;-76
2023/09/15 10:44:29;;;;;;;;;;;;;;;24.10;56.33;96946.91;4209943;28;5656;-75
2023/09/15 10:46:35;;;;;;;;;;;;;;;24.11;56.26;96946.63;4209206;28;5656;-77
2023/09/15 10:48:39;;;;;;;;;;;;;;;24.12;56.21;96939.34;4214349;28;5744;-74
2023/09/15 10:50:42;;;;;;;;;;;;;;;24.13;55.94;96946.38;4207453;28;5855;-74
2023/09/15 10:52:46;;;;;;;;;;;;;;;24.14;56.37;96937.19;4208553;28;5689;-74
2023/09/15 10:54:49;;;;;;;;;;;;;;;24.16;56.36;96940.41;4208054;28;5896;-74
2023/09/15 10:56:55;;;;;;;;;;;;;;;24.18;56.20;96938.25;4204904;28;5799;-72
2023/09/15 10:58:58;;;;;;;;;;;;;;;24.18;55.44;96932.84;4212999;28;5664;-74
2023/09/15 11:01:02;;;;;;;;;;;;;;;24.17;55.55;96933.94;4210997;28;5693;-74
2023/09/15 11:03:05;;;;;;;;;;;;;;;24.16;55.34;96935.03;4215449;28;5878;-74
2023/09/15 11:05:08;;;;;;;;;;;;;;;24.16;55.46;96929.63;4216232;28;5799;-74
2023/09/15 11:07:13;;;;;;;;;;;;;;;24.19;55.76;96928.25;4206167;28;5756;-74
2023/09/15 11:09:17;;;;;;;;;;;;;;;24.17;55.58;96923.13;4215083;28;5673;-73
2023/09/15 11:11:19;;;;;;;;;;;;;;;24.20;55.48;96924.47;4215744;28;5767;-73
2023/09/15 11:13:24;;;;;;;;;;;;;;;24.21;55.47;96917.97;4209086;28;5953;-73
2023/09/15 11:15:27;;;;;;;;;;;;;;;24.21;55.43;96916.06;4210436;28;5794;-73
2023/09/15 11:17:30;;;;;;;;;;;;;;;24.22;55.28;96912.28;4218310;28;5749;-73
2023/09/15 11:19:36;;;;;;;;;;;;;;;24.26;55.27;96901.75;4210286;28;5777;-73
2023/09/15 11:21:39;;;;;;;;;;;;;;;24.27;55.52;96909.56;4208800;28;5668;-74
2023/09/15 11:23:44;;;;;;;;;;;;;;;24.29;55.47;96898.50;4216097;28;5730;-73
2023/09/15 11:25:47;;;;;;;;;;;;;;;24.31;55.52;96901.75;4214997;28;5823;-73
2023/09/15 11:27:51;;;;;;;;;;;;;;;24.33;55.27;96905.78;4216698;28;5660;-73
2023/09/15 11:29:55;;;;;;;;;;;;;;;24.35;55.12;96902.78;4207037;28;6365;-74
2023/09/15 11:32:08;;;;;;;;;;;;;;;24.34;55.34;96901.19;4208889;28;5771;-73
2023/09/15 11:34:15;;;;;;;;;;;;;;;24.33;55.07;96902.28;4209725;28;5676;-73
2023/09/15 11:36:21;;;;;;;;;;;;;;;24.32;55.58;96896.06;4206835;28;5908;-74
2023/09/15 11:38:24;;;;;;;;;;;;;;;24.31;55.50;96899.84;4206536;28;5747;-73
2023/09/15 11:40:28;;;;;;;;;;;;;;;24.32;55.36;96882.56;4207308;28;5783;-73
2023/09/15 11:42:31;;;;;;;;;;;;;;;24.29;55.40;96885.78;4215300;28;5656;-72
2023/09/15 11:44:36;;;;;;;;;;;;;;;24.28;55.53;96889.59;4209274;28;5685;-72
2023/09/15 11:46:41;;;;;;;;;;;;;;;24.32;55.43;96893.38;4209667;28;5772;-73
2023/09/15 11:48:48;;;;;;;;;;;;;;;24.32;55.27;96879.84;4203310;28;5705;-75
2023/09/15 11:50:53;;;;;;;;;;;;;;;24.34;55.52;96876.88;4215529;28;5874;-74
2023/09/15 11:52:56;;;;;;;;;;;;;;;24.36;55.61;96878.22;4210482;28;5901;-72
2023/09/15 11:54:59;;;;;;;;;;;;;;;24.39;55.46;96879.56;4210589;28;6365;-73
2023/09/15 11:57:03;;;;;;;;;;;;;;;24.39;55.64;96874.97;4212252;28;5831;-72
2023/09/15 11:59:06;;;;;;;;;;;;;;;24.42;55.65;96879.00;4206895;28;5741;-72
2023/09/15 12:01:10;;;;;;;;;;;;;;;24.43;56.02;96869.00;4210818;28;5760;-73
2023/09/15 12:03:15;;;;;;;;;;;;;;;24.44;55.93;96874.13;4209487;28;5688;-73
2023/09/15 12:05:20;;;;;;;;;;;;;;;24.45;55.82;96872.22;4212250;28;5656;-73
2023/09/15 12:07:23;;;;;;;;;;;;;;;24.44;55.71;96863.31;4210128;28;5712;-73
2023/09/15 12:09:26;;;;;;;;;;;;;;;24.43;55.54;96864.38;4207865;28;5844;-72
2023/09/15 12:11:29;;;;;;;;;;;;;;;24.41;55.94;96863.06;4212877;28;5664;-73
2023/09/15 12:13:35;;;;;;;;;;;;;;;24.44;55.79;96862.50;4212201;28;5837;-73
2023/09/15 12:15:39;;;;;;;;;;;;;;;24.43;55.70;96853.59;4210403;28;5986;-73
2023/09/15 12:17:44;;;;;;;;;;;;;;;24.43;55.58;96852.78;4199346;28;5848;-73
2023/09/15 12:19:50;;;;;;;;;;;;;;;24.44;55.84;96849.00;4198563;28;5811;-72
2023/09/15 12:21:53;;;;;;;;;;;;;;;24.45;55.68;96845.19;4201465;28;5902;-72
2023/09/15 12:24:09;;;;;;;;;;;;;;;24.45;55.70;96848.69;4210844;28;5743;-73
2023/09/15 12:26:12;;;;;;;;;;;;;;;24.47;55.19;96840.34;4205901;28;5799;-72
2023/09/15 12:28:14;;;;;;;;;;;;;;;24.49;55.53;96832.75;4210617;28;5706;-73
2023/09/15 12:30:19;;;;;;;;;;;;;;;24.48;55.07;96825.75;4207359;28;5693;-73
2023/09/15 12:32:27;;;;;;;;;;;;;;;24.50;55.49;96828.97;4207972;28;5795;-73
2023/09/15 12:34:30;;;;;;;;;;;;;;;24.49;55.30;96828.16;4200811;28;5808;-73
2023/09/15 12:36:34;;;;;;;;;;;;;;;24.51;55.49;96825.16;4208411;28;5811;-73
2023/09/15 12:38:37;;;;;;;;;;;;;;;24.49;55.24;96816.53;4222470;28;5643;-73
2023/09/15 12:40:40;;;;;;;;;;;;;;;24.49;54.94;96816.53;4212183;28;5680;-74
2023/09/15 12:42:44;;;;;;;;;;;;;;;24.51;54.97;96822.47;4214046;28;5755;-74
2023/09/15 12:44:47;;;;;;;;;;;;;;;24.48;55.22;96821.13;4206623;28;6371;-74
2023/09/15 12:46:53;;;;;;;;;;;;;;;24.48;55.32;96806.81;4218915;28;5918;-73
2023/09/15 12:48:56;;;;;;;;;;;;;;;24.49;55.44;96813.84;4217819;28;5676;-72
2023/09/15 12:50:59;;;;;;;;;;;;;;;24.53;55.08;96804.06;4213516;28;5771;-73
2023/09/15 12:53:03;;;;;;;;;;;;;;;24.57;55.16;96810.50;4211421;28;5668;-73
2023/09/15 12:55:07;;;;;;;;;;;;;;;24.57;55.02;96800.50;4214275;28;5832;-73
2023/09/15 12:57:10;;;;;;;;;;;;;;;24.58;54.53;96799.44;4212513;28;5776;-73
2023/09/15 12:59:13;;;;;;;;;;;;;;;24.58;54.49;96790.53;4206506;28;5836;-73
2023/09/15 13:01:16;;;;;;;;;;;;;;;24.58;54.48;96794.03;4207497;28;5782;-73
2023/09/15 13:03:20;;;;;;;;;;;;;;;24.61;55.11;96795.38;4215550;28;5665;-74
2023/09/15 13:05:25;;;;;;;;;;;;;;;24.63;55.04;96787.78;4213684;28;5663;-73
2023/09/15 13:07:28;;;;;;;;;;;;;;;24.64;54.89;96783.97;4215183;28;5767;-74
2023/09/15 13:09:32;;;;;;;;;;;;;;;24.63;54.87;96783.19;4208071;28;5693;-74
2023/09/15 13:11:36;;;;;;;;;;;;;;;24.63;54.46;96771.56;4210543;28;5664;-73
2023/09/15 13:13:39;;;;;;;;;;;;;;;24.63;54.41;96766.16;4208800;28;6600;-73
2023/09/15 13:15:42;;;;;;;;;;;;;;;24.64;54.70;96765.06;4210770;28;6369;-73
2023/09/15 13:17:45;;;;;;;;;;;;;;;24.66;54.16;96765.59;4213071;28;5805;-73
2023/09/15 13:19:48;;;;;;;;;;;;;;;24.68;54.40;96766.09;4211654;28;5785;-73
2023/09/15 13:21:51;;;;;;;;;;;;;;;24.70;54.35;96755.84;4211514;28;5794;-73
2023/09/15 13:23:54;;;;;;;;;;;;;;;24.72;53.26;96764.47;4207383;28;5820;-73
2023/09/15 13:25:59;;;;;;;;;;;;;;;24.72;53.53;96763.66;4210102;28;5660;-73
2023/09/15 13:28:02;;;;;;;;;;;;;;;24.72;53.69;96759.06;4214314;28;5664;-73
2023/09/15 13:30:06;;;;;;;;;;;;;;;24.74;53.15;96761.47;4215495;28;5763;-73
2023/09/15 13:32:09;;;;;;;;;;;;;;;24.75;53.17;96765.78;4216215;28;5668;-74
2023/09/15 13:34:12;;;;;;;;;;;;;;;24.75;53.16;96766.59;4215103;28;5680;-73
2023/09/15 13:36:16;;;;;;;;;;;;;;;24.76;53.26;96760.09;4211397;28;5747;-73
2023/09/15 13:38:20;;;;;;;;;;;;;;;24.78;52.96;96752.50;4208051;28;5810;-73
2023/09/15 13:40:22;;;;;;;;;;;;;;;24.80;52.44;96750.31;4210999;28;5875;-73
2023/09/15 13:42:32;;;;;;;;;;;;;;;24.81;52.59;96751.94;4211028;28;6002;-72
2023/09/15 13:44:35;;;;;;;;;;;;;;;24.84;52.53;96742.44;4211933;28;5688;-73
2023/09/15 13:46:38;;;;;;;;;;;;;;;24.85;52.39;96742.16;4209819;28;5854;-73
2023/09/15 13:48:41;;;;;;;;;;;;;;;24.87;52.67;96742.69;4213440;28;5770;-81
2023/09/15 13:50:44;;;;;;;;;;;;;;;24.87;52.58;96739.16;4210379;28;5724;-77
2023/09/15 13:52:47;;;;;;;;;;;;;;;24.88;52.77;96732.66;4206874;28;5796;-75
2023/09/15 13:54:52;;;;;;;;;;;;;;;24.89;52.29;96737.78;4213761;28;6595;-76
2023/09/15 13:56:55;;;;;;;;;;;;;;;24.89;52.44;96732.38;4206075;28;5874;-74
2023/09/15 13:58:59;;;;;;;;;;;;;;;24.91;52.48;96735.59;4209866;28;5763;-71
2023/09/15 14:01:02;;;;;;;;;;;;;;;24.92;52.43;96720.22;4214738;28;5854;-74
2023/09/15 14:03:05;;;;;;;;;;;;;;;24.92;52.72;96721.00;4214716;28;5725;-80
2023/09/15 14:05:09;;;;;;;;;;;;;;;24.95;52.66;96720.44;4206553;28;5755;-73
2023/09/15 14:07:12;;;;;;;;;;;;;;;24.98;52.62;96721.75;4214593;28;5668;-77
2023/09/15 14:09:15;;;;;;;;;;;;;;;24.97;52.59;96723.66;4208229;28;5736;-67
2023/09/15 14:11:18;;;;;;;;;;;;;;;24.99;52.50;96715.25;4208222;28;5777;-71
2023/09/15 14:13:21;;;;;;;;;;;;;;;25.00;52.45;96714.16;4207570;28;5122;-72
2023/09/15 14:15:26;;;;;;;;;;;;;;;25.00;52.43;96713.34;4214404;28;5728;-74
2023/09/15 14:17:29;;;;;;;;;;;;;;;25.01;52.18;96706.84;4207353;28;5812;-74
2023/09/15 14:19:31;;;;;;;;;;;;;;;25.02;52.21;96703.06;4204172;28;5807;-72
2023/09/15 14:21:35;;;;;;;;;;;;;;;25.01;52.29;96699.56;4205035;28;5904;-74
2023/09/15 14:23:38;;;;;;;;;;;;;;;25.01;52.50;96696.84;4211768;28;5680;-74